sensor_id;sensor_type;location;lat;lon;timestamp;pressure;altitude;pressure_sealevel;temperature;humidity
39363;BME280;25088;43.238;23.110;2023-12-29T00:00:33;97031.06;;;6.97;59.47
39363;BME280;25088;43.238;23.110;2023-12-29T00:02:59;97038.03;;;7.11;60.18
39363;BME280;25088;43.238;23.110;2023-12-29T00:05:24;97010.00;;;6.92;59.91
39363;BME280;25088;43.238;23.110;2023-12-29T00:07:50;97027.78;;;6.88;60.17
39363;BME280;25088;43.238;23.110;2023-12-29T00:10:15;97038.63;;;6.88;59.98
39363;BME280;25088;43.238;23.110;2023-12-29T00:12:41;97043.81;;;6.90;60.28
39363;BME280;25088;43.238;23.110;2023-12-29T00:15:07;97029.66;;;6.88;59.39
39363;BME280;25088;43.238;23.110;2023-12-29T00:17:32;97051.22;;;7.08;59.83
39363;BME280;25088;43.238;23.110;2023-12-29T00:20:05;97049.44;;;7.20;60.06
39363;BME280;25088;43.238;23.110;2023-12-29T00:22:30;97056.53;;;7.21;59.99
39363;BME280;25088;43.238;23.110;2023-12-29T00:24:56;97045.63;;;7.03;60.53
39363;BME280;25088;43.238;23.110;2023-12-29T00:27:22;97055.03;;;7.00;59.45
39363;BME280;25088;43.238;23.110;2023-12-29T00:29:47;97061.50;;;6.99;61.06
39363;BME280;25088;43.238;23.110;2023-12-29T00:32:13;97073.84;;;6.95;60.31
39363;BME280;25088;43.238;23.110;2023-12-29T00:34:38;97063.06;;;6.88;60.01
39363;BME280;25088;43.238;23.110;2023-12-29T00:37:04;97069.91;;;6.91;60.39
39363;BME280;25088;43.238;23.110;2023-12-29T00:39:31;97051.72;;;6.66;60.13
39363;BME280;25088;43.238;23.110;2023-12-29T00:42:04;97064.72;;;6.89;60.43
39363;BME280;25088;43.238;23.110;2023-12-29T00:44:29;97071.97;;;6.95;58.66
39363;BME280;25088;43.238;23.110;2023-12-29T00:46:55;97070.66;;;7.05;58.67
39363;BME280;25088;43.238;23.110;2023-12-29T00:49:20;97069.81;;;7.04;60.15
39363;BME280;25088;43.238;23.110;2023-12-29T00:51:47;97077.72;;;7.12;61.42
39363;BME280;25088;43.238;23.110;2023-12-29T00:54:12;97073.09;;;7.13;60.20
39363;BME280;25088;43.238;23.110;2023-12-29T00:56:38;97079.28;;;7.27;59.62
39363;BME280;25088;43.238;23.110;2023-12-29T00:59:03;97070.06;;;7.28;60.17
39363;BME280;25088;43.238;23.110;2023-12-29T01:01:33;97080.03;;;7.34;59.09
39363;BME280;25088;43.238;23.110;2023-12-29T01:03:59;97083.03;;;7.25;59.67
39363;BME280;25088;43.238;23.110;2023-12-29T01:06:24;97083.25;;;7.24;60.52
39363;BME280;25088;43.238;23.110;2023-12-29T01:08:50;97062.56;;;6.98;60.89
39363;BME280;25088;43.238;23.110;2023-12-29T01:11:15;97087.72;;;6.87;61.49
39363;BME280;25088;43.238;23.110;2023-12-29T01:13:40;97090.19;;;6.57;62.46
39363;BME280;25088;43.238;23.110;2023-12-29T01:16:06;97093.63;;;6.32;66.11
39363;BME280;25088;43.238;23.110;2023-12-29T01:18:32;97087.97;;;6.34;66.95
39363;BME280;25088;43.238;23.110;2023-12-29T01:20:57;97089.09;;;6.06;67.40
39363;BME280;25088;43.238;23.110;2023-12-29T01:23:22;97095.59;;;5.99;68.39
39363;BME280;25088;43.238;23.110;2023-12-29T01:25:48;97084.56;;;5.93;67.64
39363;BME280;25088;43.238;23.110;2023-12-29T01:28:13;97063.78;;;5.67;66.96
39363;BME280;25088;43.238;23.110;2023-12-29T01:30:39;97073.72;;;5.80;67.38
39363;BME280;25088;43.238;23.110;2023-12-29T01:33:05;97083.06;;;5.91;67.71
39363;BME280;25088;43.238;23.110;2023-12-29T01:35:30;97092.06;;;5.91;65.90
39363;BME280;25088;43.238;23.110;2023-12-29T01:37:56;97018.13;;;5.64;66.88
39363;BME280;25088;43.238;23.110;2023-12-29T01:40:22;97085.78;;;6.04;67.11
39363;BME280;25088;43.238;23.110;2023-12-29T01:42:48;97079.50;;;6.10;66.60
39363;BME280;25088;43.238;23.110;2023-12-29T01:45:24;97073.63;;;6.27;67.53
39363;BME280;25088;43.238;23.110;2023-12-29T01:47:51;97049.75;;;5.97;65.98
39363;BME280;25088;43.238;23.110;2023-12-29T01:50:19;97072.34;;;6.29;64.17
39363;BME280;25088;43.238;23.110;2023-12-29T01:52:46;97057.53;;;6.32;64.93
39363;BME280;25088;43.238;23.110;2023-12-29T01:55:17;97057.09;;;6.35;65.20
39363;BME280;25088;43.238;23.110;2023-12-29T01:57:43;97053.59;;;6.28;64.18
39363;BME280;25088;43.238;23.110;2023-12-29T02:00:11;97052.75;;;6.27;63.94
39363;BME280;25088;43.238;23.110;2023-12-29T02:02:37;97037.75;;;6.25;64.32
39363;BME280;25088;43.238;23.110;2023-12-29T02:05:02;97027.72;;;6.25;63.80
39363;BME280;25088;43.238;23.110;2023-12-29T02:07:28;97025.66;;;6.20;65.46
39363;BME280;25088;43.238;23.110;2023-12-29T02:09:57;97034.16;;;6.31;66.35
39363;BME280;25088;43.238;23.110;2023-12-29T02:12:23;97019.75;;;6.37;64.83
39363;BME280;25088;43.238;23.110;2023-12-29T02:14:49;97011.06;;;6.60;64.05
39363;BME280;25088;43.238;23.110;2023-12-29T02:19:49;97003.06;;;6.71;63.17
39363;BME280;25088;43.238;23.110;2023-12-29T02:22:15;96997.34;;;6.80;60.34
39363;BME280;25088;43.238;23.110;2023-12-29T02:24:50;96992.25;;;6.90;59.92
39363;BME280;25088;43.238;23.110;2023-12-29T02:29:48;97008.94;;;7.18;59.21
39363;BME280;25088;43.238;23.110;2023-12-29T02:32:19;97008.72;;;7.20;59.79
39363;BME280;25088;43.238;23.110;2023-12-29T02:34:47;96996.41;;;7.17;60.49
39363;BME280;25088;43.238;23.110;2023-12-29T02:37:15;96977.63;;;6.91;59.83
39363;BME280;25088;43.238;23.110;2023-12-29T02:39:41;97011.72;;;6.87;60.79
39363;BME280;25088;43.238;23.110;2023-12-29T02:42:07;96981.19;;;6.66;59.23
39363;BME280;25088;43.238;23.110;2023-12-29T02:44:32;97001.28;;;6.84;59.32
39363;BME280;25088;43.238;23.110;2023-12-29T02:46:58;97002.91;;;6.91;60.09
39363;BME280;25088;43.238;23.110;2023-12-29T02:49:26;96991.25;;;6.84;60.51
39363;BME280;25088;43.238;23.110;2023-12-29T02:51:51;96991.59;;;6.38;62.06
39363;BME280;25088;43.238;23.110;2023-12-29T02:54:17;96992.00;;;5.96;64.79
39363;BME280;25088;43.238;23.110;2023-12-29T02:56:42;96988.13;;;5.73;65.53
39363;BME280;25088;43.238;23.110;2023-12-29T02:59:07;96982.50;;;5.61;64.05
39363;BME280;25088;43.238;23.110;2023-12-29T03:01:33;96972.66;;;5.80;62.79
39363;BME280;25088;43.238;23.110;2023-12-29T03:04:00;96976.50;;;6.10;61.99
39363;BME280;25088;43.238;23.110;2023-12-29T03:06:26;96878.34;;;5.57;61.31
39363;BME280;25088;43.238;23.110;2023-12-29T03:08:51;96895.97;;;5.79;60.17
39363;BME280;25088;43.238;23.110;2023-12-29T03:11:18;96959.47;;;6.35;58.56
39363;BME280;25088;43.238;23.110;2023-12-29T03:13:43;96948.97;;;6.45;59.06
39363;BME280;25088;43.238;23.110;2023-12-29T03:16:09;96938.88;;;6.59;57.66
39363;BME280;25088;43.238;23.110;2023-12-29T03:18:34;96934.88;;;6.61;57.87
39363;BME280;25088;43.238;23.110;2023-12-29T03:21:04;96916.56;;;6.57;57.68
39363;BME280;25088;43.238;23.110;2023-12-29T03:23:30;96926.03;;;6.72;57.05
39363;BME280;25088;43.238;23.110;2023-12-29T03:25:55;96929.47;;;6.86;55.84
39363;BME280;25088;43.238;23.110;2023-12-29T03:28:20;96926.09;;;7.09;54.75
39363;BME280;25088;43.238;23.110;2023-12-29T03:30:46;96933.97;;;7.17;54.84
39363;BME280;25088;43.238;23.110;2023-12-29T03:33:11;96921.28;;;7.11;54.80
39363;BME280;25088;43.238;23.110;2023-12-29T03:35:37;96912.69;;;7.14;54.49
39363;BME280;25088;43.238;23.110;2023-12-29T03:38:02;96923.69;;;7.19;54.87
39363;BME280;25088;43.238;23.110;2023-12-29T03:40:28;96924.72;;;7.43;54.73
39363;BME280;25088;43.238;23.110;2023-12-29T03:42:53;96928.47;;;7.42;54.09
39363;BME280;25088;43.238;23.110;2023-12-29T03:45:18;96915.72;;;7.43;54.47
39363;BME280;25088;43.238;23.110;2023-12-29T03:47:44;96911.94;;;7.44;54.12
39363;BME280;25088;43.238;23.110;2023-12-29T03:50:09;96928.34;;;7.37;54.26
39363;BME280;25088;43.238;23.110;2023-12-29T03:52:35;96927.41;;;7.43;54.02
39363;BME280;25088;43.238;23.110;2023-12-29T03:55:00;96924.47;;;7.45;53.13
39363;BME280;25088;43.238;23.110;2023-12-29T03:57:26;96918.00;;;7.46;53.41
39363;BME280;25088;43.238;23.110;2023-12-29T03:59:51;96922.53;;;7.52;52.94
39363;BME280;25088;43.238;23.110;2023-12-29T04:02:16;96929.22;;;7.49;53.35
39363;BME280;25088;43.238;23.110;2023-12-29T04:04:43;96910.75;;;7.21;54.44
39363;BME280;25088;43.238;23.110;2023-12-29T04:07:08;96928.81;;;7.09;55.56
39363;BME280;25088;43.238;23.110;2023-12-29T04:09:33;96925.34;;;7.02;54.69
39363;BME280;25088;43.238;23.110;2023-12-29T04:11:59;96924.72;;;7.00;55.37
39363;BME280;25088;43.238;23.110;2023-12-29T04:14:24;96924.19;;;6.91;55.58
39363;BME280;25088;43.238;23.110;2023-12-29T04:16:50;96936.16;;;6.84;55.29
39363;BME280;25088;43.238;23.110;2023-12-29T04:19:15;96932.44;;;7.03;54.31
39363;BME280;25088;43.238;23.110;2023-12-29T04:21:41;96932.81;;;7.07;54.15
39363;BME280;25088;43.238;23.110;2023-12-29T04:24:06;96883.09;;;6.88;52.74
39363;BME280;25088;43.238;23.110;2023-12-29T04:26:36;96927.81;;;7.47;51.63
39363;BME280;25088;43.238;23.110;2023-12-29T04:29:02;96924.25;;;7.65;50.75
39363;BME280;25088;43.238;23.110;2023-12-29T04:31:27;96926.94;;;7.83;50.05
39363;BME280;25088;43.238;23.110;2023-12-29T04:33:53;96931.41;;;7.96;49.76
39363;BME280;25088;43.238;23.110;2023-12-29T04:36:18;96932.91;;;7.92;49.32
39363;BME280;25088;43.238;23.110;2023-12-29T04:38:44;96919.75;;;7.89;49.00
39363;BME280;25088;43.238;23.110;2023-12-29T04:41:11;96878.13;;;7.58;50.82
39363;BME280;25088;43.238;23.110;2023-12-29T04:43:37;96914.19;;;7.65;50.97
39363;BME280;25088;43.238;23.110;2023-12-29T04:46:02;96919.03;;;7.63;49.87
39363;BME280;25088;43.238;23.110;2023-12-29T04:48:28;96921.00;;;7.74;50.10
39363;BME280;25088;43.238;23.110;2023-12-29T04:50:53;96922.06;;;7.73;50.41
39363;BME280;25088;43.238;23.110;2023-12-29T04:53:19;96923.09;;;7.91;49.29
39363;BME280;25088;43.238;23.110;2023-12-29T04:55:44;96925.19;;;7.89;50.04
39363;BME280;25088;43.238;23.110;2023-12-29T04:58:10;96930.59;;;7.77;50.28
39363;BME280;25088;43.238;23.110;2023-12-29T05:00:35;96923.66;;;7.81;50.87
39363;BME280;25088;43.238;23.110;2023-12-29T05:03:01;96932.91;;;7.73;51.88
39363;BME280;25088;43.238;23.110;2023-12-29T05:05:26;96920.84;;;7.33;54.01
39363;BME280;25088;43.238;23.110;2023-12-29T05:07:52;96925.50;;;7.07;53.80
39363;BME280;25088;43.238;23.110;2023-12-29T05:10:17;96944.06;;;7.10;53.04
39363;BME280;25088;43.238;23.110;2023-12-29T05:12:42;96940.47;;;7.16;52.54
39363;BME280;25088;43.238;23.110;2023-12-29T05:15:08;96951.09;;;7.18;52.52
39363;BME280;25088;43.238;23.110;2023-12-29T05:17:34;96921.69;;;6.90;54.61
39363;BME280;25088;43.238;23.110;2023-12-29T05:19:59;96963.38;;;6.70;55.76
39363;BME280;25088;43.238;23.110;2023-12-29T05:22:24;96958.63;;;6.66;56.29
39363;BME280;25088;43.238;23.110;2023-12-29T05:24:50;96960.66;;;6.45;57.23
39363;BME280;25088;43.238;23.110;2023-12-29T05:27:15;96962.09;;;6.48;57.31
39363;BME280;25088;43.238;23.110;2023-12-29T05:29:41;96962.53;;;6.45;56.05
39363;BME280;25088;43.238;23.110;2023-12-29T05:32:07;96969.59;;;6.53;55.74
39363;BME280;25088;43.238;23.110;2023-12-29T05:34:33;96968.47;;;6.60;54.83
39363;BME280;25088;43.238;23.110;2023-12-29T05:36:59;96970.66;;;6.77;54.34
39363;BME280;25088;43.238;23.110;2023-12-29T05:39:24;96927.44;;;6.75;53.02
39363;BME280;25088;43.238;23.110;2023-12-29T05:41:50;96978.91;;;7.13;53.30
39363;BME280;25088;43.238;23.110;2023-12-29T05:44:15;96980.56;;;7.14;53.83
39363;BME280;25088;43.238;23.110;2023-12-29T05:46:41;96982.69;;;7.12;53.03
39363;BME280;25088;43.238;23.110;2023-12-29T05:49:06;96982.38;;;7.20;52.87
39363;BME280;25088;43.238;23.110;2023-12-29T05:51:32;96974.22;;;7.02;53.70
39363;BME280;25088;43.238;23.110;2023-12-29T05:53:57;96970.50;;;6.96;53.51
39363;BME280;25088;43.238;23.110;2023-12-29T05:56:23;96971.19;;;7.10;53.15
39363;BME280;25088;43.238;23.110;2023-12-29T05:58:48;96975.78;;;6.91;55.33
39363;BME280;25088;43.238;23.110;2023-12-29T06:01:13;96941.88;;;6.44;55.84
39363;BME280;25088;43.238;23.110;2023-12-29T06:03:39;96981.94;;;6.73;55.51
39363;BME280;25088;43.238;23.110;2023-12-29T06:06:05;96980.63;;;6.83;54.37
39363;BME280;25088;43.238;23.110;2023-12-29T06:08:30;96979.56;;;6.84;54.93
39363;BME280;25088;43.238;23.110;2023-12-29T06:10:56;96977.63;;;6.91;55.26
39363;BME280;25088;43.238;23.110;2023-12-29T06:13:22;96982.06;;;7.10;56.81
39363;BME280;25088;43.238;23.110;2023-12-29T06:15:47;96975.88;;;7.03;55.35
39363;BME280;25088;43.238;23.110;2023-12-29T06:18:13;96971.88;;;6.81;55.96
39363;BME280;25088;43.238;23.110;2023-12-29T06:20:38;96987.28;;;6.87;56.73
39363;BME280;25088;43.238;23.110;2023-12-29T06:23:04;96941.84;;;6.19;56.85
39363;BME280;25088;43.238;23.110;2023-12-29T06:25:29;96973.25;;;6.33;56.82
39363;BME280;25088;43.238;23.110;2023-12-29T06:27:55;96921.91;;;6.07;57.24
39363;BME280;25088;43.238;23.110;2023-12-29T06:30:20;96990.63;;;6.57;57.49
39363;BME280;25088;43.238;23.110;2023-12-29T06:32:46;97000.59;;;6.63;56.16
39363;BME280;25088;43.238;23.110;2023-12-29T06:35:11;96979.31;;;6.60;55.13
39363;BME280;25088;43.238;23.110;2023-12-29T06:37:40;96938.03;;;6.58;54.82
39363;BME280;25088;43.238;23.110;2023-12-29T06:40:07;97003.34;;;7.13;54.51
39363;BME280;25088;43.238;23.110;2023-12-29T06:42:32;96993.25;;;7.20;54.40
39363;BME280;25088;43.238;23.110;2023-12-29T06:44:58;97002.91;;;7.78;54.04
39363;BME280;25088;43.238;23.110;2023-12-29T06:47:23;97003.44;;;8.53;50.35
39363;BME280;25088;43.238;23.110;2023-12-29T06:49:49;97000.41;;;9.15;48.67
39363;BME280;25088;43.238;23.110;2023-12-29T06:52:16;97007.06;;;9.66;48.20
39363;BME280;25088;43.238;23.110;2023-12-29T06:54:41;96997.03;;;10.07;47.19
39363;BME280;25088;43.238;23.110;2023-12-29T06:57:07;96979.38;;;10.50;45.93
39363;BME280;25088;43.238;23.110;2023-12-29T06:59:33;96994.00;;;10.89;44.70
39363;BME280;25088;43.238;23.110;2023-12-29T07:01:58;96979.63;;;11.44;43.43
39363;BME280;25088;43.238;23.110;2023-12-29T07:04:24;96976.06;;;11.82;43.02
39363;BME280;25088;43.238;23.110;2023-12-29T07:06:49;96981.13;;;12.12;42.54
39363;BME280;25088;43.238;23.110;2023-12-29T07:09:15;96969.31;;;12.56;42.14
39363;BME280;25088;43.238;23.110;2023-12-29T07:11:40;96973.03;;;12.45;40.92
39363;BME280;25088;43.238;23.110;2023-12-29T07:14:05;96979.38;;;12.50;41.13
39363;BME280;25088;43.238;23.110;2023-12-29T07:16:31;96970.47;;;12.60;41.16
39363;BME280;25088;43.238;23.110;2023-12-29T07:18:56;96979.09;;;12.74;42.03
39363;BME280;25088;43.238;23.110;2023-12-29T07:21:22;96988.81;;;12.86;41.74
39363;BME280;25088;43.238;23.110;2023-12-29T07:23:47;96985.25;;;12.86;41.02
39363;BME280;25088;43.238;23.110;2023-12-29T07:26:13;96985.91;;;13.25;40.33
39363;BME280;25088;43.238;23.110;2023-12-29T07:28:38;96986.28;;;13.81;39.29
39363;BME280;25088;43.238;23.110;2023-12-29T07:31:04;96993.34;;;14.14;40.14
39363;BME280;25088;43.238;23.110;2023-12-29T07:33:30;96986.63;;;14.42;39.59
39363;BME280;25088;43.238;23.110;2023-12-29T07:35:56;96981.94;;;14.38;40.04
39363;BME280;25088;43.238;23.110;2023-12-29T07:38:21;96995.41;;;14.44;40.28
39363;BME280;25088;43.238;23.110;2023-12-29T07:40:47;96983.59;;;14.44;39.38
39363;BME280;25088;43.238;23.110;2023-12-29T07:43:15;96993.06;;;14.73;39.41
39363;BME280;25088;43.238;23.110;2023-12-29T07:45:40;96987.88;;;14.87;39.40
39363;BME280;25088;43.238;23.110;2023-12-29T07:48:08;96973.06;;;15.24;39.16
39363;BME280;25088;43.238;23.110;2023-12-29T07:50:34;96967.56;;;15.09;38.53
39363;BME280;25088;43.238;23.110;2023-12-29T07:52:59;96993.69;;;15.83;38.06
39363;BME280;25088;43.238;23.110;2023-12-29T07:55:30;96995.34;;;15.89;38.17
39363;BME280;25088;43.238;23.110;2023-12-29T07:57:56;96990.13;;;15.87;37.92
39363;BME280;25088;43.238;23.110;2023-12-29T08:00:21;96988.91;;;16.24;37.60
39363;BME280;25088;43.238;23.110;2023-12-29T08:02:48;96993.81;;;16.37;37.29
39363;BME280;25088;43.238;23.110;2023-12-29T08:05:14;97001.31;;;16.26;37.49
39363;BME280;25088;43.238;23.110;2023-12-29T08:07:41;97003.44;;;16.40;37.38
39363;BME280;25088;43.238;23.110;2023-12-29T08:10:06;97002.44;;;16.85;36.39
39363;BME280;25088;43.238;23.110;2023-12-29T08:12:32;96989.97;;;17.37;35.12
39363;BME280;25088;43.238;23.110;2023-12-29T08:14:59;96986.09;;;17.38;35.08
39363;BME280;25088;43.238;23.110;2023-12-29T08:17:25;96999.03;;;17.43;35.17
39363;BME280;25088;43.238;23.110;2023-12-29T08:19:51;96989.81;;;18.16;35.09
39363;BME280;25088;43.238;23.110;2023-12-29T08:22:16;96995.00;;;18.89;34.12
39363;BME280;25088;43.238;23.110;2023-12-29T08:24:42;96998.69;;;19.03;34.05
39363;BME280;25088;43.238;23.110;2023-12-29T08:27:12;96969.28;;;18.70;33.78
39363;BME280;25088;43.238;23.110;2023-12-29T08:29:37;96991.41;;;18.65;34.49
39363;BME280;25088;43.238;23.110;2023-12-29T08:32:03;96985.78;;;19.50;33.82
39363;BME280;25088;43.238;23.110;2023-12-29T08:34:29;96988.75;;;19.73;33.83
39363;BME280;25088;43.238;23.110;2023-12-29T08:36:54;96971.84;;;20.34;32.17
39363;BME280;25088;43.238;23.110;2023-12-29T08:39:21;96984.78;;;20.67;32.29
39363;BME280;25088;43.238;23.110;2023-12-29T08:41:46;96989.56;;;21.02;32.84
39363;BME280;25088;43.238;23.110;2023-12-29T08:44:12;96991.03;;;21.22;31.86
39363;BME280;25088;43.238;23.110;2023-12-29T08:46:37;96988.66;;;21.65;32.00
39363;BME280;25088;43.238;23.110;2023-12-29T08:49:03;97001.69;;;22.10;30.83
39363;BME280;25088;43.238;23.110;2023-12-29T08:51:29;96980.41;;;22.05;30.36
39363;BME280;25088;43.238;23.110;2023-12-29T08:53:54;96992.78;;;22.53;30.02
39363;BME280;25088;43.238;23.110;2023-12-29T08:56:20;96990.22;;;22.74;29.64
39363;BME280;25088;43.238;23.110;2023-12-29T08:58:45;96980.31;;;22.99;28.83
39363;BME280;25088;43.238;23.110;2023-12-29T09:01:12;96980.19;;;23.12;28.88
39363;BME280;25088;43.238;23.110;2023-12-29T09:03:37;96980.84;;;23.44;28.53
39363;BME280;25088;43.238;23.110;2023-12-29T09:06:04;96953.78;;;23.53;28.47
39363;BME280;25088;43.238;23.110;2023-12-29T09:08:30;96977.38;;;23.47;28.70
39363;BME280;25088;43.238;23.110;2023-12-29T09:10:55;96965.25;;;23.60;28.39
39363;BME280;25088;43.238;23.110;2023-12-29T09:13:21;96976.09;;;23.79;28.22
39363;BME280;25088;43.238;23.110;2023-12-29T09:15:50;96965.75;;;23.80;27.72
39363;BME280;25088;43.238;23.110;2023-12-29T09:18:15;96959.66;;;23.95;28.04
39363;BME280;25088;43.238;23.110;2023-12-29T09:20:41;96958.44;;;24.22;27.89
39363;BME280;25088;43.238;23.110;2023-12-29T09:23:06;96970.22;;;24.28;28.26
39363;BME280;25088;43.238;23.110;2023-12-29T09:25:32;96956.91;;;24.33;28.03
39363;BME280;25088;43.238;23.110;2023-12-29T09:27:57;96956.91;;;24.42;28.10
39363;BME280;25088;43.238;23.110;2023-12-29T09:30:23;96948.66;;;24.45;27.90
39363;BME280;25088;43.238;23.110;2023-12-29T09:32:48;96946.25;;;24.65;27.84
39363;BME280;25088;43.238;23.110;2023-12-29T09:35:14;96939.69;;;24.69;27.48
39363;BME280;25088;43.238;23.110;2023-12-29T09:37:39;96942.06;;;24.80;27.45
39363;BME280;25088;43.238;23.110;2023-12-29T09:40:05;96941.06;;;24.84;27.45
39363;BME280;25088;43.238;23.110;2023-12-29T09:42:31;96930.25;;;24.83;27.52
39363;BME280;25088;43.238;23.110;2023-12-29T09:44:59;96929.75;;;25.10;27.18
39363;BME280;25088;43.238;23.110;2023-12-29T09:47:28;96911.09;;;24.93;26.94
39363;BME280;25088;43.238;23.110;2023-12-29T09:49:55;96920.47;;;25.39;26.55
39363;BME280;25088;43.238;23.110;2023-12-29T09:52:21;96896.56;;;25.63;26.29
39363;BME280;25088;43.238;23.110;2023-12-29T09:54:49;96909.63;;;25.92;25.83
39363;BME280;25088;43.238;23.110;2023-12-29T09:57:17;96906.22;;;25.86;26.06
39363;BME280;25088;43.238;23.110;2023-12-29T09:59:43;96904.63;;;25.97;26.35
39363;BME280;25088;43.238;23.110;2023-12-29T10:02:15;96892.13;;;25.95;26.12
39363;BME280;25088;43.238;23.110;2023-12-29T10:04:43;96903.53;;;25.90;26.09
39363;BME280;25088;43.238;23.110;2023-12-29T10:07:13;96906.84;;;26.04;26.21
39363;BME280;25088;43.238;23.110;2023-12-29T10:09:40;96893.78;;;26.20;26.12
39363;BME280;25088;43.238;23.110;2023-12-29T10:12:09;96880.38;;;26.01;26.22
39363;BME280;25088;43.238;23.110;2023-12-29T10:15:12;96888.94;;;26.42;26.01
39363;BME280;25088;43.238;23.110;2023-12-29T10:23:20;96897.81;;;26.44;25.23
39363;BME280;25088;43.238;23.110;2023-12-29T10:25:48;96892.66;;;26.70;25.41
39363;BME280;25088;43.238;23.110;2023-12-29T10:28:16;96889.38;;;26.93;25.21
39363;BME280;25088;43.238;23.110;2023-12-29T10:30:43;96883.06;;;26.96;25.63
39363;BME280;25088;43.238;23.110;2023-12-29T10:33:08;96891.53;;;27.24;24.70
39363;BME280;25088;43.238;23.110;2023-12-29T10:35:35;96893.59;;;26.87;25.73
39363;BME280;25088;43.238;23.110;2023-12-29T10:38:09;96892.66;;;26.83;25.43
39363;BME280;25088;43.238;23.110;2023-12-29T10:40:35;96875.41;;;26.80;25.34
39363;BME280;25088;43.238;23.110;2023-12-29T10:43:01;96882.44;;;27.15;25.43
39363;BME280;25088;43.238;23.110;2023-12-29T10:45:32;96868.09;;;27.16;25.32
39363;BME280;25088;43.238;23.110;2023-12-29T10:47:59;96868.81;;;27.41;24.84
39363;BME280;25088;43.238;23.110;2023-12-29T10:50:25;96878.25;;;27.65;24.26
39363;BME280;25088;43.238;23.110;2023-12-29T10:53:10;96856.72;;;27.53;24.41
39363;BME280;25088;43.238;23.110;2023-12-29T10:55:35;96876.22;;;27.49;24.35
39363;BME280;25088;43.238;23.110;2023-12-29T10:58:01;96884.84;;;27.28;25.11
39363;BME280;25088;43.238;23.110;2023-12-29T11:00:29;96878.50;;;27.16;25.42
39363;BME280;25088;43.238;23.110;2023-12-29T11:02:56;96872.69;;;27.37;24.66
39363;BME280;25088;43.238;23.110;2023-12-29T11:05:24;96870.13;;;27.31;24.76
39363;BME280;25088;43.238;23.110;2023-12-29T11:07:50;96866.81;;;27.42;24.51
39363;BME280;25088;43.238;23.110;2023-12-29T11:10:19;96870.78;;;27.00;25.60
39363;BME280;25088;43.238;23.110;2023-12-29T11:12:47;96878.03;;;27.01;25.04
39363;BME280;25088;43.238;23.110;2023-12-29T11:15:14;96876.03;;;27.14;25.20
39363;BME280;25088;43.238;23.110;2023-12-29T11:17:41;96858.41;;;27.42;24.68
39363;BME280;25088;43.238;23.110;2023-12-29T11:20:15;96860.34;;;27.81;24.58
39363;BME280;25088;43.238;23.110;2023-12-29T11:22:46;96855.13;;;27.40;24.73
39363;BME280;25088;43.238;23.110;2023-12-29T11:25:12;96852.56;;;27.91;24.57
39363;BME280;25088;43.238;23.110;2023-12-29T11:27:37;96843.94;;;27.83;24.17
39363;BME280;25088;43.238;23.110;2023-12-29T11:30:04;96849.94;;;27.98;24.33
39363;BME280;25088;43.238;23.110;2023-12-29T11:32:35;96836.53;;;28.07;24.14
39363;BME280;25088;43.238;23.110;2023-12-29T11:35:20;96834.81;;;27.87;24.20
39363;BME280;25088;43.238;23.110;2023-12-29T11:43:26;96832.78;;;27.27;24.87
39363;BME280;25088;43.238;23.110;2023-12-29T11:45:52;96838.44;;;27.59;24.95
39363;BME280;25088;43.238;23.110;2023-12-29T11:51:40;96817.53;;;27.41;24.45
39363;BME280;25088;43.238;23.110;2023-12-29T11:54:06;96824.25;;;27.24;25.00
39363;BME280;25088;43.238;23.110;2023-12-29T11:56:36;96838.25;;;27.80;24.70
39363;BME280;25088;43.238;23.110;2023-12-29T11:59:19;96823.66;;;27.30;24.78
39363;BME280;25088;43.238;23.110;2023-12-29T12:01:53;96845.34;;;26.93;25.65
39363;BME280;25088;43.238;23.110;2023-12-29T12:04:40;96817.41;;;27.09;24.91
39363;BME280;25088;43.238;23.110;2023-12-29T12:12:44;96823.97;;;27.57;24.63
39363;BME280;25088;43.238;23.110;2023-12-29T12:18:04;96820.06;;;27.18;25.27
39363;BME280;25088;43.238;23.110;2023-12-29T12:20:32;96827.09;;;27.40;25.10
39363;BME280;25088;43.238;23.110;2023-12-29T12:23:20;96821.69;;;27.47;24.99
39363;BME280;25088;43.238;23.110;2023-12-29T12:25:49;96830.84;;;27.16;25.28
39363;BME280;25088;43.238;23.110;2023-12-29T12:28:16;96823.13;;;27.41;25.03
39363;BME280;25088;43.238;23.110;2023-12-29T12:30:42;96831.66;;;27.16;25.19
39363;BME280;25088;43.238;23.110;2023-12-29T12:33:07;96826.50;;;27.18;25.36
39363;BME280;25088;43.238;23.110;2023-12-29T12:35:36;96821.22;;;27.45;24.71
39363;BME280;25088;43.238;23.110;2023-12-29T12:38:12;96818.03;;;27.30;25.11
39363;BME280;25088;43.238;23.110;2023-12-29T12:40:38;96809.94;;;27.57;24.80
39363;BME280;25088;43.238;23.110;2023-12-29T12:43:04;96809.19;;;27.44;24.70
39363;BME280;25088;43.238;23.110;2023-12-29T12:45:34;96817.03;;;27.67;24.41
39363;BME280;25088;43.238;23.110;2023-12-29T12:48:12;96808.72;;;27.70;24.67
39363;BME280;25088;43.238;23.110;2023-12-29T12:50:43;96809.66;;;27.46;25.06
39363;BME280;25088;43.238;23.110;2023-12-29T12:53:10;96827.16;;;27.55;24.78
39363;BME280;25088;43.238;23.110;2023-12-29T12:55:36;96818.53;;;27.64;24.52
39363;BME280;25088;43.238;23.110;2023-12-29T12:58:02;96821.06;;;27.53;24.85
39363;BME280;25088;43.238;23.110;2023-12-29T13:00:27;96826.41;;;27.02;25.27
39363;BME280;25088;43.238;23.110;2023-12-29T13:02:53;96815.81;;;26.96;25.55
39363;BME280;25088;43.238;23.110;2023-12-29T13:05:19;96821.72;;;26.66;25.55
39363;BME280;25088;43.238;23.110;2023-12-29T13:07:44;96827.84;;;26.84;25.30
39363;BME280;25088;43.238;23.110;2023-12-29T13:10:10;96811.09;;;26.35;25.63
39363;BME280;25088;43.238;23.110;2023-12-29T13:12:35;96825.69;;;26.28;25.64
39363;BME280;25088;43.238;23.110;2023-12-29T13:15:08;96822.44;;;26.39;25.96
39363;BME280;25088;43.238;23.110;2023-12-29T13:17:34;96819.16;;;26.00;26.25
39363;BME280;25088;43.238;23.110;2023-12-29T13:19:59;96828.16;;;26.18;26.03